Time;durP1;ratioP1;P1;durP2;ratioP2;P2;SDS_P1;SDS_P2;PMS_P1;PMS_P2;Temp;Humidity;BMP_temperature;BMP_pressure;BME280_temperature;BME280_humidity;BME280_pressure;Samples;Min_cycle;Max_cycle;Signal;HPM_P1;HPM_P2
2022/07/22 07:43:16;;;;;;;8.77;5.15;;;;;;;30.50;43.14;99487.75;6104550;22;1847774;-85
2022/07/22 07:46:02;;;;;;;;;;;;;;;;;;;;;
2022/07/22 07:48:31;;;;;;;9.65;6.15;;;;;;;30.53;43.00;99491.97;6188258;23;20479;-83
2022/07/22 07:50:57;;;;;;;8.07;5.53;;;;;;;30.54;43.11;99488.28;6187296;23;20005;-83
2022/07/22 07:53:26;;;;;;;8.80;5.82;;;;;;;30.57;42.97;99495.19;6188198;23;20012;-83
2022/07/22 07:56:11;;;;;;;7.68;5.35;;;;;;;30.53;43.31;99490.16;6188241;23;20061;-83
2022/07/22 07:58:43;;;;;;;10.05;5.72;;;;;;;30.53;43.55;99484.75;6186709;23;20005;-84
2022/07/22 08:01:37;;;;;;;10.05;5.78;;;;;;;30.54;43.60;99491.84;6188629;23;19997;-83
2022/07/22 08:04:03;;;;;;;8.88;6.00;;;;;;;30.53;43.81;99487.44;6187152;23;20017;-83
2022/07/22 08:07:19;;;;;;;9.50;6.07;;;;;;;30.55;44.19;99490.81;6188895;23;20027;-84
2022/07/22 08:09:45;;;;;;;8.98;5.80;;;;;;;30.54;44.05;99489.13;6186604;23;20036;-85
2022/07/22 08:12:13;;;;;;;8.85;5.50;;;;;;;30.55;43.87;99490.81;6162123;23;20005;-84
2022/07/22 08:14:58;;;;;;;10.18;6.28;;;;;;;30.57;43.73;99481.75;6186990;23;20039;-84
2022/07/22 08:17:25;;;;;;;8.85;6.13;;;;;;;30.58;43.76;99478.91;6188215;23;20388;-82
2022/07/22 08:19:51;;;;;;;9.50;6.13;;;;;;;30.60;44.04;99486.81;6186993;23;20408;-85
2022/07/22 08:22:20;;;;;;;7.47;5.50;;;;;;;30.60;44.13;99476.06;6187672;23;20007;-84
2022/07/22 10:08:11;;;;;;;102.95;17.27;;;;;;;31.18;43.24;99476.44;6145221;23;20351;-85
2022/07/22 10:10:38;;;;;;;84.10;14.77;;;;;;;31.20;43.22;99482.50;6214701;23;20092;-86
2022/07/22 10:13:06;;;;;;;137.90;20.15;;;;;;;31.20;43.80;99487.91;6192859;23;20039;-86
2022/07/22 10:15:33;;;;;;;141.85;22.17;;;;;;;31.21;43.59;99484.19;6220008;23;20007;-85
2022/07/22 10:18:06;;;;;;;104.82;17.98;;;;;;;31.24;43.22;99497.38;6194987;23;20091;-87
2022/07/22 10:20:35;;;;;;;101.57;17.73;;;;;;;31.26;42.96;99492.66;6196382;23;20001;-85
2022/07/22 10:23:06;;;;;;;98.05;17.77;;;;;;;31.28;43.08;99490.66;6195490;23;20009;-86
2022/07/22 10:25:58;;;;;;;105.40;18.33;;;;;;;31.31;43.01;99493.03;6195973;23;20000;-85
2022/07/22 10:28:30;;;;;;;71.35;15.63;;;;;;;31.33;42.71;99488.31;6196660;23;20087;-86
2022/07/22 10:35:17;;;;;;;103.55;17.17;;;;;;;31.39;42.72;99494.06;6224799;23;20043;-86
2022/07/22 10:37:58;;;;;;;77.63;15.48;;;;;;;31.41;42.83;99500.13;6197566;23;20000;-85
2022/07/22 10:40:35;;;;;;;56.03;14.23;;;;;;;31.43;42.88;99503.53;6199108;23;20035;-85
2022/07/22 10:43:03;;;;;;;76.47;14.95;;;;;;;31.42;43.46;99496.47;6195685;23;20001;-85
2022/07/22 10:45:59;;;;;;;52.33;12.27;;;;;;;31.44;43.54;99491.75;6196815;23;20012;-85
2022/07/22 10:48:57;;;;;;;53.08;12.52;;;;;;;31.46;43.30;99497.81;6196518;23;20116;-86
2022/07/22 10:51:59;;;;;;;40.33;11.50;;;;;;;31.47;43.37;99504.91;6224759;23;20117;-85
2022/07/22 10:54:45;;;;;;;47.03;10.98;;;;;;;31.45;43.33;99499.69;6219624;23;20039;-86
2022/07/22 10:57:34;;;;;;;37.42;11.50;;;;;;;31.48;43.46;99495.81;6195658;23;20000;-85
2022/07/22 11:01:08;;;;;;;49.83;11.25;;;;;;;31.51;42.78;99500.88;6194887;23;20008;-86
2022/07/22 11:03:11;;;;;;;40.88;11.10;;;;;;;31.53;42.80;99498.88;6193915;23;20001;-86
2022/07/22 11:05:40;;;;;;;33.85;10.60;;;;;;;31.54;42.59;99497.84;6221811;23;20316;-82
2022/07/22 11:08:09;;;;;;;30.08;10.23;;;;;;;31.56;42.73;99503.09;6221397;23;20027;-85
2022/07/22 11:10:35;;;;;;;37.95;9.88;;;;;;;31.58;42.63;99503.75;6195169;23;20003;-86
2022/07/22 11:13:00;;;;;;;26.50;8.80;;;;;;;31.59;42.48;99498.22;6195739;23;20009;-84
2022/07/22 11:15:27;;;;;;;26.52;9.38;;;;;;;31.63;42.69;99503.25;6195413;23;20399;-85
2022/07/22 11:17:57;;;;;;;23.45;8.77;;;;;;;31.63;42.62;99487.09;6222408;23;20075;-86
2022/07/22 11:20:23;;;;;;;34.00;9.30;;;;;;;31.64;42.16;99486.94;6225936;23;20072;-86
2022/07/22 11:22:49;;;;;;;28.88;9.07;;;;;;;31.68;42.42;99490.13;6226212;23;20005;-84
2022/07/22 11:25:17;;;;;;;24.63;7.90;;;;;;;31.69;42.24;99497.22;6195551;23;20059;-84
2022/07/22 11:27:57;;;;;;;20.70;8.05;;;;;;;31.70;42.12;99510.53;6193315;23;19996;-85
2022/07/22 11:30:25;;;;;;;23.88;8.68;;;;;;;31.71;42.12;99503.31;6195885;23;20084;-86
2022/07/22 11:32:50;;;;;;;20.48;7.78;;;;;;;31.73;41.91;99503.97;6198245;23;20019;-86
2022/07/22 11:35:31;;;;;;;17.70;7.20;;;;;;;31.73;42.36;99499.44;6197552;23;20008;-85
2022/07/22 11:37:56;;;;;;;23.13;7.53;;;;;;;31.74;42.28;99497.56;6195813;23;20005;-86
2022/07/22 11:40:33;;;;;;;16.83;7.03;;;;;;;31.75;42.23;99492.03;6198198;23;20011;-87
2022/07/22 11:43:04;;;;;;;22.83;8.07;;;;;;;31.76;42.21;99492.84;6225603;23;20068;-85
2022/07/22 11:45:31;;;;;;;24.63;8.20;;;;;;;31.80;42.25;99493.41;6198403;23;20495;-85
2022/07/22 11:47:58;;;;;;;19.08;7.25;;;;;;;31.82;41.84;99500.31;6227669;23;19996;-86
2022/07/22 11:50:32;;;;;;;17.08;7.57;;;;;;;31.82;41.78;99497.63;6227936;23;20011;-86
2022/07/22 11:53:08;;;;;;;17.98;6.93;;;;;;;31.83;41.60;99496.59;6200575;23;20388;-87
2022/07/22 11:55:35;;;;;;;21.63;7.65;;;;;;;31.84;41.93;99495.63;6228004;23;19997;-86
2022/07/22 11:58:16;;;;;;;21.15;7.93;;;;;;;31.85;41.96;99508.09;6202323;23;20478;-85
2022/07/22 12:04:07;;;;;;;17.60;8.05;;;;;;;31.86;41.87;99509.78;6218637;23;20011;-87
2022/07/22 12:06:39;;;;;;;14.90;7.10;;;;;;;31.87;42.01;99511.47;6195848;23;20015;-86
2022/07/22 12:09:36;;;;;;;15.70;7.20;;;;;;;31.92;41.25;99512.81;6178546;23;20088;-87
2022/07/22 12:12:03;;;;;;;16.02;6.60;;;;;;;31.94;41.69;99510.78;6170111;23;20009;-88
2022/07/22 12:14:31;;;;;;;13.98;5.78;;;;;;;31.94;41.96;99508.09;6168333;23;20001;-86
2022/07/22 12:17:06;;;;;;;15.20;7.10;;;;;;;31.96;41.44;99514.19;6164516;23;20001;-86
2022/07/22 12:19:35;;;;;;;15.45;6.57;;;;;;;31.97;41.61;99510.47;6162892;23;20017;-85
2022/07/22 12:22:10;;;;;;;12.77;7.22;;;;;;;31.98;42.00;99512.16;6162857;23;20002;-86
2022/07/22 12:24:45;;;;;;;11.32;6.90;;;;;;;31.98;41.73;99512.16;6160183;23;20005;-86
2022/07/22 12:27:13;;;;;;;16.10;6.65;;;;;;;32.00;41.54;99515.53;6164051;23;19997;-87
2022/07/22 12:29:39;;;;;;;11.65;5.72;;;;;;;32.00;41.46;99518.22;6164506;23;20402;-86
2022/07/22 12:32:15;;;;;;;8.38;5.75;;;;;;;32.00;41.63;99515.53;6163422;23;20036;-85
2022/07/22 12:34:42;;;;;;;15.13;6.53;;;;;;;31.99;42.04;99522.81;6164147;23;20036;-86
2022/07/22 12:37:29;;;;;;;11.57;6.18;;;;;;;31.99;41.76;99513.84;6169325;23;20005;-85
2022/07/22 12:40:10;;;;;;;11.95;5.78;;;;;;;32.01;41.79;99507.28;6163968;23;20052;-83
2022/07/22 12:42:39;;;;;;;12.32;5.78;;;;;;;32.04;41.42;99521.47;6166359;23;20491;-84
2022/07/22 12:45:06;;;;;;;9.27;5.72;;;;;;;32.04;41.64;99524.16;6166545;23;20071;-84
2022/07/22 12:47:55;;;;;;;9.07;5.40;;;;;;;32.06;41.11;99516.75;6167853;23;20024;-85
2022/07/22 12:50:31;;;;;;;9.32;5.22;;;;;;;32.07;41.62;99523.81;6167815;23;20083;-85
2022/07/22 12:53:07;;;;;;;;;;;;;;;32.08;41.43;99523.66;6169224;23;20013;-85
2022/07/22 12:55:55;;;;;;;10.27;5.72;;;;;;;32.09;41.60;99530.75;6169679;23;19915;-85
2022/07/22 12:58:22;;;;;;;7.82;5.28;;;;;;;32.08;41.49;99526.34;6166554;23;20016;-86
2022/07/22 13:00:55;;;;;;;7.68;5.53;;;;;;;32.09;41.51;99525.34;6168510;23;20412;-85
2022/07/22 13:03:25;;;;;;;9.02;5.80;;;;;;;32.11;41.29;99517.09;6170122;23;20024;-86
2022/07/22 13:06:00;;;;;;;9.07;5.30;;;;;;;32.12;41.63;99522.31;6167544;23;20316;-85
2022/07/22 13:08:28;;;;;;;8.73;5.70;;;;;;;32.12;41.32;99521.47;6190270;23;20099;-84
2022/07/22 13:11:03;;;;;;;8.43;5.50;;;;;;;32.13;41.06;99533.94;6228283;23;20068;-85
2022/07/22 13:13:29;;;;;;;9.07;5.22;;;;;;;32.13;41.38;99528.56;6199886;23;20019;-86
2022/07/22 13:16:02;;;;;;;6.43;5.10;;;;;;;32.13;41.64;99526.72;6201553;23;20004;-84
2022/07/22 13:18:33;;;;;;;8.18;4.95;;;;;;;32.13;41.68;99526.72;6203479;23;20064;-86
2022/07/22 13:21:39;;;;;;;9.60;4.97;;;;;;;32.13;41.86;99531.25;6202333;23;20000;-85
2022/07/22 13:24:05;;;;;;;9.30;5.03;;;;;;;32.13;41.77;99529.41;6197966;23;20087;-85
2022/07/22 13:26:36;;;;;;;6.88;4.95;;;;;;;32.12;41.80;99530.44;6225301;23;20030;-85
2022/07/22 13:29:05;;;;;;;7.93;5.00;;;;;;;32.15;41.75;99529.25;6198794;23;20008;-85
2022/07/22 13:33:03;;;;;;;9.82;5.03;;;;;;;32.17;41.95;99527.22;6197465;23;20004;-84
2022/07/22 13:35:33;;;;;;;7.47;5.00;;;;;;;32.18;41.32;99530.75;6216747;23;20111;-84
2022/07/22 13:37:59;;;;;;;7.13;5.43;;;;;;;32.19;41.42;99525.19;6228334;23;20426;-85
2022/07/22 13:40:27;;;;;;;9.27;5.03;;;;;;;32.23;41.53;99531.09;6228826;23;20416;-85
2022/07/22 13:42:58;;;;;;;9.63;5.13;;;;;;;32.22;41.09;99527.56;6201041;23;20080;-85
2022/07/22 13:45:25;;;;;;;9.05;5.03;;;;;;;32.24;41.35;99533.63;6201433;23;20006;-84
2022/07/22 13:48:02;;;;;;;7.30;4.38;;;;;;;32.26;41.19;99536.19;6228367;23;20000;-84
2022/07/22 13:50:37;;;;;;;9.15;5.10;;;;;;;32.28;41.52;99534.13;6221894;23;20001;-84
2022/07/22 13:53:19;;;;;;;5.97;4.30;;;;;;;32.29;41.08;99533.13;6219385;23;20001;-84
2022/07/22 13:55:55;;;;;;;7.13;5.35;;;;;;;32.30;40.61;99534.84;6195554;23;20373;-84
2022/07/22 13:58:34;;;;;;;9.07;5.03;;;;;;;32.33;41.26;99541.75;6197654;23;20005;-83
2022/07/22 14:01:06;;;;;;;7.18;4.95;;;;;;;32.33;41.14;99534.50;6198689;23;20000;-84
2022/07/22 14:04:20;;;;;;;7.38;4.72;;;;;;;32.35;41.04;99535.16;6198366;23;20062;-84
2022/07/22 14:07:02;;;;;;;6.95;5.10;;;;;;;32.36;41.07;99541.41;6223420;23;20088;-83
2022/07/22 14:09:28;;;;;;;8.50;4.75;;;;;;;32.37;40.96;99543.94;6173526;23;20032;-83
2022/07/22 14:11:56;;;;;;;7.13;4.80;;;;;;;32.38;41.29;99542.94;6166863;23;20003;-84
2022/07/22 14:14:22;;;;;;;6.30;4.60;;;;;;;32.39;41.08;99547.31;6166831;23;20044;-83
2022/07/22 14:16:58;;;;;;;6.50;4.68;;;;;;;32.40;40.94;99537.38;6168115;23;20017;-85
2022/07/22 14:19:24;;;;;;;6.40;4.53;;;;;;;32.41;41.02;99544.50;6166509;23;20001;-85
2022/07/22 14:21:50;;;;;;;7.32;4.90;;;;;;;32.41;41.02;99548.03;6169195;23;20036;-86
2022/07/22 14:24:15;;;;;;;7.15;4.90;;;;;;;32.44;40.92;99540.59;6170707;23;20401;-85
2022/07/22 14:26:42;;;;;;;5.65;4.47;;;;;;;32.43;41.01;99531.66;6171568;23;20084;-84
2022/07/22 14:29:08;;;;;;;6.30;4.15;;;;;;;32.44;40.98;99536.03;6170971;23;20005;-86
2022/07/22 14:31:41;;;;;;;6.65;4.65;;;;;;;32.46;40.97;99541.28;6169153;23;20056;-83
2022/07/22 14:34:07;;;;;;;6.40;4.10;;;;;;;32.45;41.30;99539.59;6163855;23;20013;-84
2022/07/22 14:36:35;;;;;;;7.38;4.70;;;;;;;32.45;40.77;99534.19;6163850;23;19998;-84
2022/07/22 14:39:05;;;;;;;7.15;4.88;;;;;;;32.46;40.83;99535.88;6162841;23;20001;-84
2022/07/22 14:41:31;;;;;;;7.03;4.22;;;;;;;32.45;41.06;99535.06;6169768;23;19997;-83
2022/07/22 14:43:59;;;;;;;6.47;4.88;;;;;;;32.47;40.85;99540.25;6165666;23;20005;-85
2022/07/22 14:46:26;;;;;;;6.88;4.65;;;;;;;32.47;41.03;99543.81;6164531;23;20001;-85
2022/07/22 14:49:06;;;;;;;7.97;5.15;;;;;;;32.48;41.00;99544.69;6166221;23;20070;-85
2022/07/22 14:51:36;;;;;;;8.20;4.75;;;;;;;32.48;40.71;99545.50;6164518;23;20317;-84
2022/07/22 14:54:11;;;;;;;8.77;5.30;;;;;;;32.49;40.86;99557.16;6165846;23;20002;-84
2022/07/22 14:56:47;;;;;;;8.55;5.20;;;;;;;32.49;40.92;99546.34;6164686;23;20011;-85
2022/07/22 14:59:14;;;;;;;6.60;4.72;;;;;;;32.49;40.85;99549.06;6164248;23;20001;-84
2022/07/22 15:01:48;;;;;;;5.75;4.30;;;;;;;32.48;40.65;99550.06;6165321;23;20002;-84
2022/07/22 15:04:21;;;;;;;10.05;5.32;;;;;;;32.48;40.87;99540.09;6167556;23;20413;-85
2022/07/22 15:06:48;;;;;;;6.97;4.20;;;;;;;32.49;40.79;99546.34;6166408;23;20071;-85
2022/07/22 15:09:17;;;;;;;6.25;5.00;;;;;;;32.49;40.92;99538.25;6208686;23;20324;-85
2022/07/22 15:11:43;;;;;;;6.60;4.70;;;;;;;32.50;40.86;99548.03;6199633;23;20004;-85
2022/07/22 15:14:20;;;;;;;5.88;4.90;;;;;;;32.50;40.63;99548.91;6227372;23;20081;-85
2022/07/22 15:16:55;;;;;;;6.72;4.93;;;;;;;32.51;40.60;99533.53;6203167;23;20004;-85
2022/07/22 15:19:24;;;;;;;8.00;4.33;;;;;;;32.50;40.80;99538.09;6202252;23;20028;-85
2022/07/22 15:21:49;;;;;;;7.40;5.28;;;;;;;32.51;40.78;99538.91;6201210;23;20001;-85
2022/07/22 15:24:36;;;;;;;5.93;4.70;;;;;;;32.50;40.84;99542.63;6228371;23;20003;-85
2022/07/22 15:27:01;;;;;;;;;;;;;;;32.52;40.56;99551.41;6225749;23;20012;-86
2022/07/22 15:29:34;;;;;;;6.47;4.43;;;;;;;32.50;41.06;99543.50;6225222;23;20218;-85
2022/07/22 15:32:00;;;;;;;6.78;4.57;;;;;;;32.49;40.80;99551.75;6226254;23;19997;-85
2022/07/22 15:34:32;;;;;;;5.65;4.47;;;;;;;32.48;41.11;99547.38;6197531;23;20017;-86
2022/07/22 15:37:17;;;;;;;7.15;5.07;;;;;;;32.47;40.91;99537.56;6196248;23;20000;-86
2022/07/22 15:40:05;;;;;;;7.13;4.90;;;;;;;32.47;40.91;99549.22;6193054;23;20001;-85
2022/07/22 15:42:34;;;;;;;8.40;5.53;;;;;;;32.47;41.02;99545.66;6221751;23;20004;-84
2022/07/22 15:45:31;;;;;;;6.85;4.93;;;;;;;32.47;40.93;99548.34;6196646;23;20392;-85
2022/07/22 15:48:11;;;;;;;6.93;5.05;;;;;;;32.47;41.03;99545.66;6215908;23;20032;-85
2022/07/22 15:51:10;;;;;;;7.40;4.63;;;;;;;32.47;40.91;99549.22;6222255;23;20063;-85
2022/07/22 15:53:58;;;;;;;8.30;5.57;;;;;;;32.47;40.92;99537.56;6197422;23;20353;-86
2022/07/22 15:56:36;;;;;;;7.43;4.85;;;;;;;32.46;41.04;99533.19;6197989;23;20320;-86
2022/07/22 16:03:15;;;;;;;6.80;5.30;;;;;;;32.46;41.04;99531.34;6226846;23;20038;-86
2022/07/22 16:09:06;;;;;;;6.60;5.03;;;;;;;32.45;40.81;99526.94;6225179;23;20390;-87
2022/07/22 16:11:43;;;;;;;7.90;5.20;;;;;;;32.46;40.99;99530.47;6200381;23;19997;-87
2022/07/22 16:14:27;;;;;;;17.88;5.30;;;;;;;32.44;40.60;99527.94;6199100;23;20028;-87
2022/07/22 16:17:07;;;;;;;10.45;5.90;;;;;;;32.45;40.69;99523.38;6200069;23;20360;-86
2022/07/22 16:19:47;;;;;;;31.60;7.30;;;;;;;32.45;40.77;99528.78;6199843;23;20008;-86
2022/07/22 16:22:46;;;;;;;25.73;7.40;;;;;;;32.44;40.70;99521.72;6198861;23;20011;-86
2022/07/22 16:25:21;;;;;;;24.92;6.88;;;;;;;32.44;40.86;99527.09;6226720;23;20416;-87
2022/07/22 16:28:43;;;;;;;33.92;6.85;;;;;;;32.44;40.64;99529.81;6226742;23;20032;-87
2022/07/22 16:34:34;;;;;;;21.85;6.32;;;;;;;32.45;40.92;99536.91;6228434;23;20063;-88
2022/07/22 16:37:20;;;;;;;57.72;9.68;;;;;;;32.43;40.88;99542.44;6202507;23;20092;-86
2022/07/22 16:40:18;;;;;;;53.53;11.68;;;;;;;32.41;40.75;99534.53;6230401;23;20000;-88
2022/07/22 16:43:00;;;;;;;67.85;12.40;;;;;;;32.41;40.98;99529.16;6201782;23;20021;-87
2022/07/22 16:46:14;;;;;;;67.93;11.52;;;;;;;32.41;40.89;99534.53;6229759;23;20000;-86
2022/07/22 16:48:42;;;;;;;63.53;11.00;;;;;;;32.41;40.83;99539.94;6227922;23;20004;-86
2022/07/22 16:51:33;;;;;;;57.10;10.18;;;;;;;32.41;40.88;99536.38;6227851;23;20011;-85
2022/07/22 16:54:06;;;;;;;53.58;11.32;;;;;;;32.40;40.82;99543.63;6198935;23;20404;-86
2022/07/22 16:56:35;;;;;;;55.45;10.80;;;;;;;32.40;40.96;99540.94;6226717;23;20000;-84
2022/07/22 16:59:05;;;;;;;50.72;10.85;;;;;;;32.41;40.76;99539.94;6198808;23;20000;-86
2022/07/22 17:01:44;;;;;;;66.18;10.73;;;;;;;32.41;40.83;99549.88;6198613;23;20000;-85
2022/07/22 17:04:15;;;;;;;50.80;10.25;;;;;;;32.40;40.74;99540.06;6200504;23;20000;-85
2022/07/22 17:06:41;;;;;;;37.63;8.60;;;;;;;32.37;40.90;99543.94;6226898;23;19997;-86
2022/07/22 17:09:07;;;;;;;31.45;8.80;;;;;;;32.36;40.81;99542.28;6175550;23;20100;-85
